Time;durP1;ratioP1;P1;durP2;ratioP2;P2;SDS_P1;SDS_P2;PMS_P1;PMS_P2;Temp;Humidity;BMP_temperature;BMP_pressure;BME280_temperature;BME280_humidity;BME280_pressure;Samples;Min_cycle;Max_cycle;Signal;HPM_P1;HPM_P2
2021/09/11 00:00:18;;;;;;;9.95;8.95;;;19.80;70.60;;;18.92;71.03;96162.66;4954018;28;20027;-64
2021/09/11 00:02:45;;;;;;;10.80;8.50;;;19.80;70.60;;;18.92;71.79;96165.31;4966359;28;20038;-64
2021/09/11 00:05:11;;;;;;;9.75;8.75;;;20.00;70.70;;;18.91;72.29;96166.38;4978240;28;20027;-65
2021/09/11 00:07:36;;;;;;;12.85;8.88;;;19.90;70.60;;;18.91;71.26;96171.69;4967001;28;20028;-65
2021/09/11 00:10:04;;;;;;;11.70;9.20;;;20.00;70.80;;;18.93;71.60;96168.78;4950796;28;20036;-64
2021/09/11 00:12:30;;;;;;;10.85;9.75;;;20.00;70.60;;;18.89;71.94;96171.13;4947114;28;20130;-64
2021/09/11 00:14:55;;;;;;;10.10;8.80;;;19.90;70.80;;;18.87;72.52;96162.56;4946794;28;20027;-64
2021/09/11 00:17:21;;;;;;;10.20;8.70;;;19.80;70.60;;;18.87;71.42;96162.56;4953171;28;20065;-64
2021/09/11 00:19:47;;;;;;;10.98;8.85;;;19.90;70.50;;;18.89;71.65;96165.81;4940668;29;20062;-64
2021/09/11 00:22:13;;;;;;;17.77;9.38;;;19.90;70.40;;;18.86;71.86;96166.28;4950519;28;20059;-64
2021/09/11 00:24:38;;;;;;;11.85;9.70;;;19.80;70.60;;;18.87;71.19;96167.91;4962583;28;20514;-64
2021/09/11 00:27:04;;;;;;;10.80;9.43;;;19.80;70.90;;;18.86;71.72;96163.63;4955745;28;20443;-64
2021/09/11 00:29:31;;;;;;;14.38;9.77;;;19.90;70.50;;;18.82;71.58;96169.66;4958708;28;20615;-64
2021/09/11 00:31:56;;;;;;;11.82;9.90;;;19.70;71.10;;;18.80;71.59;96167.25;4951952;28;20041;-64
2021/09/11 00:34:23;;;;;;;12.13;10.52;;;19.70;71.00;;;18.79;72.21;96176.28;4966418;28;20519;-65
2021/09/11 00:36:48;;;;;;;12.02;10.80;;;19.70;71.20;;;18.77;72.75;96175.69;4956737;28;20043;-64
2021/09/11 00:39:15;;;;;;;14.90;11.55;;;19.70;71.80;;;18.76;73.04;96174.06;4951981;28;20090;-65
2021/09/11 00:41:41;;;;;;;13.82;11.07;;;19.70;72.20;;;18.71;73.16;96174.00;4950856;28;20661;-64
2021/09/11 00:44:06;;;;;;;14.05;11.27;;;19.50;73.60;;;18.63;74.31;96182.38;4934571;29;20110;-64
2021/09/11 00:46:32;;;;;;;12.85;11.55;;;19.50;74.40;;;18.55;74.28;96177.38;4950547;28;20063;-64
2021/09/11 00:48:58;;;;;;;16.42;12.50;;;19.30;75.90;;;18.51;75.59;96178.88;4959956;28;20153;-64
2021/09/11 00:51:24;;;;;;;16.10;12.77;;;19.30;76.10;;;18.44;75.59;96183.56;4959395;28;20082;-64
2021/09/11 00:53:49;;;;;;;15.75;13.23;;;19.20;76.70;;;18.36;76.21;96192.72;4934405;29;20055;-64
2021/09/11 00:56:15;;;;;;;16.73;14.20;;;19.20;77.00;;;18.24;77.39;96190.09;4952101;28;20121;-64
2021/09/11 00:58:41;;;;;;;19.05;15.70;;;19.00;77.60;;;18.12;77.37;96191.16;4969783;28;20031;-64
2021/09/11 01:01:07;;;;;;;17.88;16.02;;;18.80;78.40;;;18.01;78.08;96198.91;4953035;28;20078;-64
2021/09/11 01:03:33;;;;;;;21.73;15.20;;;18.70;78.90;;;17.92;79.16;96195.00;4949973;28;20063;-64
2021/09/11 01:05:58;;;;;;;18.80;16.80;;;18.60;79.30;;;17.86;79.37;96192.44;4950368;28;20039;-64
2021/09/11 01:08:26;;;;;;;18.00;16.10;;;18.60;79.90;;;17.85;80.12;96196.13;4950881;28;20071;-64
2021/09/11 01:10:51;;;;;;;19.95;17.23;;;18.60;79.70;;;17.84;79.91;96194.53;4944506;28;20061;-64
2021/09/11 01:13:17;;;;;;;19.33;16.67;;;18.70;79.60;;;17.79;80.21;96191.75;4953962;28;20039;-64
2021/09/11 01:15:43;;;;;;;20.60;18.08;;;18.60;79.30;;;17.73;79.90;96188.97;4966917;28;20067;-64
2021/09/11 01:18:09;;;;;;;21.38;17.73;;;18.60;79.90;;;17.71;80.63;96191.06;4956811;28;20039;-64
2021/09/11 01:20:35;;;;;;;22.08;17.83;;;18.60;80.10;;;17.72;80.85;96192.69;4949648;28;20514;-64
2021/09/11 01:23:01;;;;;;;20.83;17.92;;;18.70;79.80;;;17.73;81.07;96193.50;4942218;28;20038;-64
2021/09/11 01:25:27;;;;;;;20.15;17.52;;;18.80;79.80;;;17.76;80.80;96195.69;4983326;28;20399;-65
2021/09/11 01:27:53;;;;;;;19.45;17.55;;;18.80;79.50;;;17.74;80.85;96190.59;4950998;28;20562;-64
2021/09/11 01:30:22;;;;;;;20.13;17.98;;;18.80;79.40;;;17.73;82.07;96193.50;4968524;28;20058;-64
2021/09/11 01:32:49;;;;;;;20.08;18.08;;;18.70;79.40;;;17.71;81.17;96201.72;4951670;28;20031;-64
2021/09/11 01:35:15;;;;;;;20.02;17.65;;;18.70;79.70;;;17.67;81.72;96194.41;4957539;28;20126;-64
2021/09/11 01:37:41;;;;;;;19.55;17.65;;;18.60;79.90;;;17.69;81.62;96193.16;4953257;28;20108;-64
2021/09/11 01:40:07;;;;;;;19.70;17.70;;;18.70;80.00;;;17.68;82.14;96194.19;4940237;28;20094;-64
2021/09/11 01:42:33;;;;;;;19.58;17.50;;;18.70;80.10;;;17.70;81.44;96193.97;4953463;28;20131;-64
2021/09/11 01:45:06;;;;;;;21.30;19.05;;;18.70;80.30;;;17.72;82.52;96192.69;4954259;28;20113;-65
2021/09/11 01:47:32;;;;;;;19.00;17.10;;;18.80;80.00;;;17.71;82.28;96191.06;4956182;28;20109;-64
2021/09/11 01:49:57;;;;;;;19.13;17.20;;;18.80;80.00;;;17.70;81.93;96192.09;4956427;28;20086;-64
2021/09/11 01:52:23;;;;;;;22.42;17.85;;;18.80;79.80;;;17.72;82.42;96187.38;4972715;28;20446;-64
2021/09/11 01:54:49;;;;;;;21.95;19.10;;;18.80;79.60;;;17.71;81.90;96193.72;4944103;28;20411;-64
2021/09/11 01:57:16;;;;;;;19.35;17.35;;;18.80;79.60;;;17.74;82.29;96195.91;4968919;28;20034;-64
2021/09/11 01:59:42;;;;;;;20.92;18.80;;;18.80;79.70;;;17.73;81.97;96199.63;4956529;28;20450;-64
2021/09/11 02:02:08;;;;;;;21.83;18.15;;;18.80;79.60;;;17.73;82.78;96199.63;4965398;28;20507;-64
2021/09/11 02:04:34;;;;;;;21.42;19.13;;;18.80;79.70;;;17.72;82.61;96198.00;4953242;28;20050;-65
2021/09/11 02:07:03;;;;;;;20.20;18.20;;;18.80;80.10;;;17.74;82.32;96203.91;4956428;28;20038;-64
2021/09/11 02:09:29;;;;;;;20.13;18.08;;;18.90;79.80;;;17.75;82.59;96205.53;4956151;28;20035;-64
2021/09/11 02:11:55;;;;;;;20.55;18.38;;;18.90;80.00;;;17.77;82.23;96205.28;4975165;28;20066;-63
2021/09/11 02:14:20;;;;;;;20.48;18.48;;;18.90;79.90;;;17.78;82.79;96201.59;4939907;28;20039;-64
2021/09/11 02:16:46;;;;;;;21.73;19.63;;;18.90;80.00;;;17.81;83.07;96211.75;4969373;28;20236;-64
2021/09/11 02:19:12;;;;;;;23.55;19.88;;;18.90;79.80;;;17.82;83.24;96209.91;4953283;28;20043;-65
2021/09/11 02:21:38;;;;;;;21.95;18.75;;;18.90;79.90;;;17.83;83.43;96219.50;4968918;28;20036;-64
2021/09/11 02:24:04;;;;;;;20.98;18.88;;;18.90;80.20;;;17.83;83.39;96219.50;4968997;28;20566;-64
2021/09/11 02:26:30;;;;;;;21.27;19.17;;;18.90;80.30;;;17.83;83.64;96224.84;4948362;28;20498;-63
2021/09/11 02:28:56;;;;;;;21.50;19.20;;;18.90;80.30;;;17.82;83.01;96223.22;4970255;28;20049;-64
2021/09/11 02:31:21;;;;;;;21.45;19.35;;;18.90;80.10;;;17.80;82.85;96215.47;4944301;28;20067;-64
2021/09/11 02:33:47;;;;;;;21.33;19.23;;;18.90;80.40;;;17.80;83.58;96226.09;4955210;28;20035;-64
2021/09/11 02:36:14;;;;;;;21.52;19.23;;;18.80;80.30;;;17.81;83.16;96221.59;4969724;28;20039;-63
2021/09/11 02:38:39;;;;;;;22.00;19.65;;;18.80;80.50;;;17.81;83.80;96219.75;4961264;28;20399;-63
2021/09/11 02:41:05;;;;;;;22.95;20.15;;;18.90;80.40;;;17.83;83.08;96228.31;4955687;28;20062;-63
2021/09/11 02:43:31;;;;;;;21.15;19.15;;;18.90;80.00;;;17.84;83.45;96226.44;4972632;28;20242;-64
2021/09/11 02:45:57;;;;;;;22.42;20.02;;;18.90;80.30;;;17.83;83.93;96222.97;4963997;28;20089;-63
2021/09/11 02:48:23;;;;;;;22.25;20.02;;;18.90;80.30;;;17.83;83.89;96227.50;4953923;28;20038;-64
2021/09/11 02:50:48;;;;;;;22.23;20.05;;;18.80;80.20;;;17.79;83.77;96234.31;4954375;28;20356;-63
2021/09/11 02:53:14;;;;;;;20.95;19.02;;;18.70;80.70;;;17.78;83.33;96232.72;4966714;28;20045;-64
2021/09/11 02:55:40;;;;;;;21.65;19.45;;;18.90;80.60;;;17.79;84.21;96229.81;4971780;28;20030;-64
2021/09/11 02:58:06;;;;;;;23.50;21.13;;;18.90;80.70;;;17.75;83.67;96231.31;4956963;28;20045;-63
2021/09/11 03:00:31;;;;;;;22.98;20.67;;;18.80;80.70;;;17.69;84.06;96238.38;4952821;28;20039;-64
2021/09/11 03:02:57;;;;;;;21.08;18.92;;;18.60;81.00;;;17.66;84.09;96235.34;4953849;28;20106;-64
2021/09/11 03:05:23;;;;;;;21.15;19.15;;;18.70;81.20;;;17.67;83.91;96228.97;4951468;28;20587;-65
2021/09/11 03:07:49;;;;;;;21.77;19.58;;;18.60;81.30;;;17.65;84.60;96226.56;4944516;28;20562;-64
2021/09/11 03:10:14;;;;;;;21.33;19.02;;;18.70;80.80;;;17.65;84.06;96231.03;4967529;28;20133;-64
2021/09/11 03:12:40;;;;;;;20.42;18.42;;;18.60;80.60;;;17.61;83.93;96238.66;4967841;28;20089;-64
2021/09/11 03:15:06;;;;;;;21.25;18.95;;;18.60;81.00;;;17.62;83.95;96224.31;4953155;28;20392;-64
2021/09/11 03:17:32;;;;;;;19.35;17.33;;;18.60;80.90;;;17.57;84.22;96226.88;4954857;28;20039;-64
2021/09/11 03:19:58;;;;;;;18.75;16.85;;;18.60;80.70;;;17.55;84.00;96236.13;4962638;28;20079;-64
2021/09/11 03:22:23;;;;;;;18.75;16.83;;;18.50;80.90;;;17.51;83.86;96235.78;4935719;29;20383;-63
2021/09/11 03:24:49;;;;;;;18.45;16.13;;;18.50;81.10;;;17.48;84.26;96228.25;4951291;28;20530;-64
2021/09/11 03:27:15;;;;;;;17.42;15.65;;;18.50;81.30;;;17.47;83.97;96233.81;4973531;28;20043;-64
2021/09/11 03:29:42;;;;;;;17.13;15.50;;;18.40;81.20;;;17.45;84.24;96231.38;4951880;28;20047;-64
2021/09/11 03:32:08;;;;;;;17.90;16.00;;;18.40;81.20;;;17.45;84.04;96234.03;4951394;28;20045;-63
2021/09/11 03:34:34;;;;;;;18.23;16.33;;;18.60;81.20;;;17.45;84.44;96234.03;4954414;28;20070;-63
2021/09/11 03:36:59;;;;;;;18.35;16.50;;;18.50;81.20;;;17.40;84.97;96232.03;4973108;28;20032;-63
2021/09/11 03:39:26;;;;;;;17.88;15.98;;;18.40;81.50;;;17.36;84.49;96228.22;4956809;28;20086;-64
2021/09/11 03:41:51;;;;;;;17.95;16.25;;;18.40;81.90;;;17.33;85.26;96230.53;4953878;28;20026;-66
2021/09/11 03:44:17;;;;;;;17.98;16.08;;;18.30;82.00;;;17.30;85.01;96226.47;4953817;28;20034;-65
2021/09/11 03:46:43;;;;;;;18.08;16.25;;;18.30;81.80;;;17.28;85.01;96225.91;4952198;28;20031;-64
2021/09/11 03:49:08;;;;;;;18.98;15.52;;;18.30;82.10;;;17.26;85.20;96222.66;4965930;28;20539;-64
2021/09/11 03:51:34;;;;;;;18.70;16.80;;;18.30;82.30;;;17.28;85.66;96222.44;4950785;28;20079;-64
2021/09/11 03:54:01;;;;;;;17.27;15.57;;;18.40;82.40;;;17.31;85.71;96227.28;4967574;28;20045;-64
2021/09/11 03:56:27;;;;;;;17.90;16.10;;;18.40;82.20;;;17.32;86.36;96228.91;4969255;28;20125;-64
2021/09/11 03:58:53;;;;;;;17.38;15.57;;;18.40;82.00;;;17.32;86.38;96223.59;4953264;28;20053;-64
2021/09/11 04:01:19;;;;;;;18.30;16.50;;;18.50;82.20;;;17.35;86.12;96223.13;4938850;28;20035;-64
2021/09/11 04:03:44;;;;;;;16.75;15.15;;;18.50;82.20;;;17.36;86.51;96214.94;4966587;28;20043;-65
2021/09/11 04:06:11;;;;;;;18.30;16.20;;;18.60;82.20;;;17.35;86.33;96218.63;4951138;28;21434;-64
2021/09/11 04:08:40;;;;;;;16.67;14.98;;;18.50;82.30;;;17.38;86.34;96222.66;4951977;28;20087;-64
2021/09/11 04:11:06;;;;;;;18.70;15.80;;;18.60;82.10;;;17.38;86.43;96225.34;4978360;28;20078;-64
2021/09/11 04:13:33;;;;;;;17.52;15.63;;;18.60;82.00;;;17.37;86.26;96226.38;4966878;28;20039;-65
2021/09/11 04:15:59;;;;;;;17.50;15.70;;;18.40;82.10;;;17.33;86.15;96226.03;4947678;28;20053;-64
2021/09/11 04:18:25;;;;;;;15.93;14.40;;;18.40;82.30;;;17.34;86.14;96232.97;4960614;28;20035;-64
2021/09/11 04:20:51;;;;;;;17.20;15.50;;;18.50;82.20;;;17.35;86.53;96231.09;4950875;28;20039;-64
2021/09/11 04:23:17;;;;;;;17.77;15.90;;;18.40;82.20;;;17.33;86.75;96230.53;4952784;28;20042;-65
2021/09/11 04:25:43;;;;;;;16.65;15.05;;;18.40;82.40;;;17.31;87.02;96229.94;4985717;28;20031;-63
2021/09/11 04:28:09;;;;;;;15.50;13.95;;;18.50;82.60;;;17.32;86.20;96234.22;4948802;28;20042;-64
2021/09/11 04:30:35;;;;;;;15.40;13.85;;;18.40;82.40;;;17.27;86.69;96226.94;4934512;29;20051;-64
2021/09/11 04:33:01;;;;;;;16.52;14.98;;;18.30;82.70;;;17.28;86.77;96227.75;4950616;28;20035;-65
2021/09/11 04:35:26;;;;;;;16.05;14.55;;;18.40;82.70;;;17.28;86.58;96233.06;4967185;28;20054;-64
2021/09/11 04:37:52;;;;;;;14.38;12.65;;;18.40;82.70;;;17.25;86.32;96237.00;4966594;28;20031;-66
2021/09/11 04:40:18;;;;;;;12.35;11.15;;;18.30;82.70;;;17.21;87.01;96227.03;4950093;28;20634;-65
2021/09/11 04:42:44;;;;;;;16.00;14.30;;;18.20;82.90;;;17.15;87.17;96234.88;4950776;28;20045;-65
2021/09/11 04:45:10;;;;;;;14.70;13.30;;;18.20;83.10;;;17.13;87.10;96236.94;4950785;28;20109;-65
2021/09/11 04:47:35;;;;;;;16.08;14.48;;;18.10;83.40;;;17.13;87.12;96236.94;4951122;28;20035;-66
2021/09/11 04:50:01;;;;;;;16.15;14.55;;;18.20;83.30;;;17.16;87.53;96233.03;4955172;28;20499;-65
2021/09/11 04:52:27;;;;;;;15.18;13.57;;;18.30;83.10;;;17.18;87.34;96232.78;4969355;28;20523;-65
2021/09/11 04:54:53;;;;;;;14.77;13.30;;;18.30;83.10;;;17.20;87.60;96225.41;4953986;28;20035;-65
2021/09/11 04:57:18;;;;;;;14.75;13.25;;;18.30;83.10;;;17.19;87.79;96229.09;4968292;28;20035;-65
2021/09/11 04:59:44;;;;;;;22.15;19.88;;;18.40;83.00;;;17.21;87.68;96232.38;4953852;28;20034;-65
2021/09/11 05:02:10;;;;;;;19.90;17.92;;;18.40;83.10;;;17.21;87.91;96235.03;4969412;28;20412;-65
2021/09/11 05:04:35;;;;;;;15.48;13.88;;;18.40;82.90;;;17.23;88.21;96238.25;4937593;28;20406;-66
2021/09/11 05:07:01;;;;;;;19.67;17.75;;;18.40;82.80;;;17.22;88.29;96249.94;4969528;28;20059;-65
2021/09/11 05:09:27;;;;;;;14.57;13.23;;;18.40;82.70;;;17.21;87.46;96245.66;4969079;28;20054;-65
2021/09/11 05:11:53;;;;;;;14.25;12.80;;;18.40;82.80;;;17.19;87.62;96250.34;4966380;28;20109;-64
2021/09/11 05:14:18;;;;;;;12.57;11.38;;;18.30;82.70;;;17.19;87.58;96255.69;4954173;28;20102;-65
2021/09/11 05:16:44;;;;;;;12.13;10.93;;;18.30;82.70;;;17.18;87.69;96259.38;4954147;28;20094;-65
2021/09/11 05:19:10;;;;;;;12.38;11.15;;;18.30;82.70;;;17.21;87.66;96258.94;4938334;29;20039;-65
2021/09/11 05:21:35;;;;;;;14.50;11.35;;;18.40;82.40;;;17.23;87.24;96256.88;4953411;28;20043;-65
2021/09/11 05:24:02;;;;;;;12.48;11.27;;;18.40;82.40;;;17.25;88.14;96260.09;4954170;28;20066;-65
2021/09/11 05:26:27;;;;;;;12.63;11.20;;;18.50;82.40;;;17.26;87.62;96264.38;4962537;28;20044;-65
2021/09/11 05:28:53;;;;;;;12.77;11.20;;;18.60;82.60;;;17.28;87.89;96267.63;4960684;28;20556;-65
2021/09/11 05:31:19;;;;;;;12.90;11.70;;;18.60;82.60;;;17.30;87.97;96263.69;4974157;28;20037;-65
2021/09/11 05:33:44;;;;;;;13.48;11.65;;;18.60;82.40;;;17.33;88.21;96273.06;4973175;28;20113;-64
2021/09/11 05:36:13;;;;;;;12.13;10.88;;;18.60;82.30;;;17.34;87.95;96280.00;4957033;28;20074;-64
2021/09/11 05:38:39;;;;;;;11.48;10.30;;;18.60;81.90;;;17.36;87.96;96273.41;4973104;28;20565;-65
2021/09/11 05:41:05;;;;;;;11.48;10.40;;;18.70;81.70;;;17.39;87.17;96282.78;4953723;28;20035;-64
2021/09/11 05:43:30;;;;;;;11.75;10.32;;;18.70;81.40;;;17.42;87.42;96287.66;4937121;28;20039;-65
2021/09/11 05:45:56;;;;;;;10.85;9.85;;;18.70;81.10;;;17.45;87.04;96288.03;4953790;29;20101;-65
2021/09/11 05:48:22;;;;;;;11.98;10.65;;;18.80;80.90;;;17.48;86.73;96283.28;4953386;29;20032;-65
2021/09/11 05:50:48;;;;;;;11.63;10.52;;;18.80;81.20;;;17.50;87.08;96295.31;4943318;29;20039;-65
2021/09/11 05:53:14;;;;;;;11.82;10.48;;;18.80;81.30;;;17.51;87.23;96286.31;4952922;28;20455;-66
2021/09/11 05:55:39;;;;;;;11.10;10.00;;;18.80;81.10;;;17.53;87.24;96291.41;4953687;28;20039;-65
2021/09/11 05:58:05;;;;;;;12.32;10.02;;;18.80;80.50;;;17.54;85.85;96291.16;4955342;28;20031;-65
2021/09/11 06:00:31;;;;;;;10.57;8.75;;;18.90;80.20;;;17.57;86.35;96290.72;4956435;28;20094;-65
2021/09/11 06:02:57;;;;;;;11.57;9.48;;;18.90;79.80;;;17.62;86.10;96282.03;4957326;28;20054;-65
2021/09/11 06:05:22;;;;;;;10.32;9.38;;;19.00;80.10;;;17.68;86.67;96291.81;4955971;28;20509;-66
2021/09/11 06:07:48;;;;;;;12.07;10.85;;;19.10;80.00;;;17.72;86.03;96288.47;4963219;28;20043;-65
2021/09/11 06:10:14;;;;;;;11.73;10.63;;;19.10;80.40;;;17.74;86.77;96285.56;4944870;28;20491;-66
2021/09/11 06:12:40;;;;;;;12.43;11.10;;;19.10;80.20;;;17.76;86.85;96283.50;4921096;29;20545;-65
2021/09/11 06:15:06;;;;;;;12.27;10.98;;;19.10;80.00;;;17.71;86.46;96281.53;4953346;29;20089;-65
2021/09/11 06:17:32;;;;;;;11.05;10.00;;;19.10;80.30;;;17.73;86.62;96290.09;4953694;28;20038;-66
2021/09/11 06:19:58;;;;;;;12.02;9.82;;;19.10;80.30;;;17.74;85.66;96283.72;4953180;28;20058;-66
2021/09/11 06:22:24;;;;;;;11.23;9.80;;;19.10;80.00;;;17.77;86.35;96292.28;4950466;28;20110;-66
2021/09/11 06:24:49;;;;;;;10.93;9.82;;;19.10;80.00;;;17.82;86.12;96284.41;4952227;28;20501;-66
2021/09/11 06:27:15;;;;;;;12.55;10.45;;;19.20;79.80;;;17.86;85.67;96282.91;4953177;28;20113;-66
2021/09/11 06:29:41;;;;;;;10.85;9.65;;;19.30;80.10;;;17.87;86.35;96268.56;4952950;28;20083;-66
2021/09/11 06:32:07;;;;;;;10.95;9.85;;;19.30;79.20;;;17.92;85.59;96266.03;4952783;28;20070;-66
2021/09/11 06:34:33;;;;;;;11.05;9.77;;;19.30;79.60;;;17.97;86.10;96274.13;4952744;29;20047;-66
2021/09/11 06:36:59;;;;;;;9.82;8.48;;;19.40;79.40;;;18.01;85.27;96275.28;4985933;28;20090;-67
2021/09/11 06:39:25;;;;;;;10.23;8.75;;;19.50;79.20;;;18.03;85.66;96268.69;4954902;28;20066;-67
2021/09/11 06:41:52;;;;;;;9.52;8.25;;;19.40;78.50;;;18.06;85.09;96273.56;4956592;28;20138;-67
2021/09/11 06:44:18;;;;;;;9.88;8.88;;;19.50;78.40;;;18.09;84.90;96280.25;4969931;28;20444;-67
2021/09/11 06:46:43;;;;;;;9.35;8.32;;;19.60;78.70;;;18.14;84.64;96280.41;4969798;28;20037;-65
2021/09/11 06:49:09;;;;;;;9.73;8.77;;;19.60;77.80;;;18.17;83.96;96282.59;4962656;28;20039;-66
2021/09/11 06:51:35;;;;;;;9.68;8.68;;;19.60;77.80;;;18.18;84.09;96272.75;4956815;28;20535;-66
2021/09/11 06:54:01;;;;;;;11.82;10.48;;;19.50;77.40;;;18.20;84.11;96278.66;4955220;28;20031;-68
2021/09/11 06:56:26;;;;;;;9.35;8.45;;;19.50;78.20;;;18.15;83.72;96274.03;4987372;28;20134;-66
2021/09/11 06:58:52;;;;;;;10.43;9.45;;;19.40;78.10;;;18.15;83.82;96271.38;4970045;28;20118;-66
2021/09/11 07:01:20;;;;;;;10.32;9.32;;;19.40;78.40;;;18.15;84.15;96259.91;4997733;28;20118;-65
2021/09/11 07:03:45;;;;;;;10.32;9.23;;;19.40;78.30;;;18.14;84.24;96264.44;4967063;28;20038;-65
2021/09/11 07:06:11;;;;;;;9.55;8.63;;;19.40;78.50;;;18.14;84.54;96263.63;4955117;28;20069;-65
2021/09/11 07:08:37;;;;;;;10.13;9.13;;;19.30;78.60;;;18.12;83.85;96263.84;4947709;29;20086;-65
2021/09/11 07:11:03;;;;;;;10.52;9.43;;;19.30;79.20;;;18.11;83.63;96259.56;4936003;29;20048;-65
2021/09/11 07:13:28;;;;;;;14.30;11.07;;;19.30;79.00;;;18.12;84.85;96255.88;4951196;28;20461;-65
2021/09/11 07:15:54;;;;;;;10.57;9.52;;;19.30;78.90;;;18.12;84.62;96261.19;4936106;29;20028;-65
2021/09/11 07:18:20;;;;;;;12.48;11.18;;;19.40;79.50;;;18.12;84.30;96255.88;4947406;28;20118;-65
2021/09/11 07:20:45;;;;;;;11.82;10.63;;;19.50;79.50;;;18.17;84.54;96257.81;4971165;28;20058;-65
2021/09/11 07:23:11;;;;;;;10.27;9.13;;;19.50;79.60;;;18.18;85.11;96265.56;4966911;28;20039;-64
2021/09/11 07:25:37;;;;;;;11.55;9.07;;;19.50;79.50;;;18.24;84.98;96259.31;4966810;28;20072;-65
2021/09/11 07:28:03;;;;;;;9.65;8.45;;;19.70;79.10;;;18.29;85.18;96262.06;4976387;28;20042;-65
2021/09/11 07:30:29;;;;;;;9.45;8.45;;;19.70;79.10;;;18.36;85.66;96268.13;4969565;28;20039;-65
2021/09/11 07:32:55;;;;;;;9.63;8.60;;;19.80;78.80;;;18.41;84.68;96275.41;4970266;28;20068;-65
2021/09/11 07:35:21;;;;;;;9.55;8.65;;;19.90;78.30;;;18.47;85.19;96268.31;4952845;28;20118;-65
2021/09/11 07:37:46;;;;;;;11.57;7.70;;;19.90;78.40;;;18.53;85.18;96272.69;4948565;28;20031;-66
2021/09/11 07:40:12;;;;;;;12.38;11.07;;;20.10;78.00;;;18.59;84.29;96269.94;4951525;29;20125;-67
2021/09/11 07:42:38;;;;;;;12.23;11.00;;;20.20;77.50;;;18.65;84.14;96276.19;4967255;28;20077;-66
2021/09/11 07:45:06;;;;;;;8.90;8.02;;;20.20;77.50;;;18.76;83.95;96278.00;4951225;29;20567;-66
2021/09/11 07:47:32;;;;;;;9.02;8.13;;;20.40;76.90;;;18.85;83.94;96275.81;4967068;28;20038;-67
2021/09/11 07:49:57;;;;;;;10.20;7.97;;;20.50;76.20;;;18.94;83.48;96285.03;4954631;28;20374;-66
2021/09/11 07:52:23;;;;;;;8.48;7.55;;;20.60;76.10;;;19.03;82.68;96283.63;4954257;28;20038;-66
2021/09/11 07:54:49;;;;;;;9.80;6.97;;;20.70;76.00;;;19.09;81.99;96288.00;4954514;28;20054;-66
2021/09/11 07:57:14;;;;;;;7.15;6.45;;;20.60;73.90;;;19.14;81.65;96289.94;4970051;28;20093;-67
2021/09/11 07:59:40;;;;;;;8.52;7.43;;;20.70;74.70;;;19.22;81.49;96286.88;4970067;28;20039;-65
2021/09/11 08:02:06;;;;;;;8.00;7.18;;;20.80;74.70;;;19.32;81.63;96292.44;4970129;28;20037;-67
2021/09/11 08:04:32;;;;;;;7.95;7.10;;;21.00;74.70;;;19.40;81.65;96281.34;4954227;28;20518;-67
2021/09/11 08:06:58;;;;;;;6.45;5.75;;;21.10;73.20;;;19.48;80.06;96286.31;4969998;28;20046;-66
2021/09/11 08:09:24;;;;;;;6.60;5.90;;;21.30;71.50;;;19.57;80.18;96279.56;4969719;28;20062;-67
2021/09/11 08:11:49;;;;;;;8.90;5.93;;;21.40;71.30;;;19.72;78.36;96286.22;4969891;28;20046;-66
2021/09/11 08:14:15;;;;;;;6.68;6.03;;;21.60;70.90;;;19.83;78.82;96282.66;4969262;28;20078;-66
2021/09/11 08:16:41;;;;;;;7.07;5.85;;;21.70;70.10;;;19.97;78.10;96286.63;4934342;29;20051;-66
2021/09/11 08:19:06;;;;;;;5.93;5.32;;;21.90;69.90;;;20.10;77.12;96283.59;4950605;29;20074;-66
2021/09/11 08:21:32;;;;;;;5.80;5.07;;;22.10;68.10;;;20.25;76.84;96279.56;4950971;28;20031;-67
2021/09/11 08:23:58;;;;;;;5.90;5.15;;;22.30;68.10;;;20.42;76.37;96293.72;4950207;29;20053;-67
2021/09/11 08:26:23;;;;;;;5.93;5.15;;;22.50;66.00;;;20.57;75.28;96291.25;4962560;28;20031;-67
2021/09/11 08:28:51;;;;;;;5.75;5.15;;;22.60;65.70;;;20.70;73.82;96288.22;4966634;28;20062;-66
2021/09/11 08:31:17;;;;;;;5.80;4.90;;;22.60;62.90;;;20.78;73.77;96287.78;4950603;28;20109;-66
2021/09/11 08:33:43;;;;;;;5.03;4.53;;;22.80;64.70;;;20.91;73.41;96291.16;4934008;29;20028;-66
2021/09/11 08:36:09;;;;;;;10.52;5.28;;;22.90;63.40;;;21.02;72.34;96293.69;4920224;28;20499;-66
2021/09/11 08:38:35;;;;;;;7.68;6.00;;;23.10;62.30;;;21.14;72.11;96296.22;4939388;28;20039;-68
2021/09/11 08:41:05;;;;;;;7.38;5.57;;;23.20;62.70;;;21.20;71.27;96302.44;4944706;23;20061;-69
2021/09/11 08:43:31;;;;;;;6.40;5.80;;;23.00;61.30;;;21.30;71.10;96303.41;4945567;28;20041;-68
2021/09/11 08:45:57;;;;;;;6.18;5.63;;;23.30;62.50;;;21.38;71.54;96305.63;4968779;28;20034;-70
2021/09/11 08:48:24;;;;;;;5.75;5.07;;;23.40;62.40;;;21.50;70.94;96296.63;4969254;28;20075;-69
2021/09/11 08:50:52;;;;;;;5.82;4.97;;;23.60;62.70;;;21.65;70.66;96294.09;4952575;28;20035;-71
2021/09/11 08:53:17;;;;;;;7.55;5.07;;;23.70;61.80;;;21.73;69.67;96290.97;4915352;28;20055;-71
2021/09/11 08:55:43;;;;;;;5.55;5.05;;;23.70;59.90;;;21.70;69.39;96278.06;4929390;29;20543;-69
2021/09/11 08:58:09;;;;;;;5.93;4.90;;;23.50;60.20;;;21.82;69.29;96289.44;4912207;29;20532;-72
2021/09/11 09:00:49;;;;;;;5.55;5.05;;;23.90;60.30;;;21.96;67.08;96285.28;4932788;28;20140;-71
2021/09/11 09:03:41;;;;;;;5.30;4.65;;;24.00;59.60;;;22.18;67.16;96293.22;4930488;28;20031;-72
2021/09/11 09:06:27;;;;;;;5.30;4.80;;;24.50;58.20;;;22.28;64.87;96284.44;4949774;28;20036;-70
2021/09/11 09:08:55;;;;;;;5.68;5.00;;;24.50;56.20;;;22.41;66.91;96285.88;4940604;28;20036;-70
2021/09/11 09:11:26;;;;;;;7.18;4.60;;;24.70;55.80;;;22.65;67.31;96283.59;4919087;28;20035;-70
2021/09/11 09:14:02;;;;;;;6.18;4.35;;;25.20;55.20;;;22.93;64.50;96285.88;4946243;28;20117;-71
2021/09/11 09:16:40;;;;;;;7.90;4.78;;;25.60;54.50;;;23.33;63.23;96289.78;4951657;28;20034;-71
2021/09/11 09:19:20;;;;;;;6.22;5.28;;;26.10;53.50;;;23.63;60.69;96292.53;4930902;29;20511;-71
2021/09/11 09:21:48;;;;;;;5.25;4.75;;;26.10;51.20;;;23.87;63.94;96286.66;4929586;29;20058;-74
2021/09/11 09:24:26;;;;;;;5.63;4.35;;;26.50;53.10;;;24.20;60.07;96288.78;4949062;28;20384;-75
2021/09/11 09:27:08;;;;;;;7.18;6.20;;;26.90;52.10;;;24.46;60.16;96294.16;4924746;29;20079;-73
2021/09/11 09:29:38;;;;;;;6.55;5.05;;;27.10;50.60;;;24.79;59.96;96288.16;4931070;28;20044;-73
2021/09/11 09:32:04;;;;;;;5.13;4.40;;;27.80;49.00;;;25.18;61.11;96292.88;4919617;29;20036;-72
2021/09/11 09:34:41;;;;;;;6.10;4.60;;;28.10;47.30;;;25.37;58.24;96283.06;4936908;28;20028;-74
2021/09/11 09:37:09;;;;;;;6.40;4.90;;;27.90;47.30;;;25.46;58.03;96286.78;4900947;29;20035;-74
2021/09/11 09:39:45;;;;;;;5.97;4.65;;;27.80;46.30;;;25.44;55.44;96283.56;4939724;28;20054;-75
2021/09/11 09:42:11;;;;;;;4.72;4.07;;;27.60;46.80;;;25.53;58.36;96276.50;4935063;28;20063;-75
2021/09/11 09:44:46;;;;;;;5.00;4.25;;;27.90;46.90;;;25.62;54.79;96276.72;4905152;29;20640;-76
2021/09/11 09:47:16;;;;;;;6.43;4.40;;;27.80;46.20;;;25.77;54.98;96291.97;4942400;29;20102;-76
2021/09/11 09:49:42;;;;;;;5.13;4.10;;;28.30;46.00;;;25.98;56.28;96277.25;4938469;28;20040;-76
2021/09/11 09:52:07;;;;;;;4.72;4.22;;;28.60;45.00;;;26.19;55.87;96281.41;4899824;29;20351;-77
2021/09/11 09:54:33;;;;;;;6.28;4.22;;;28.80;43.90;;;26.27;55.56;96284.59;4916121;29;20122;-76
2021/09/11 09:56:59;;;;;;;5.55;4.38;;;28.60;45.00;;;26.29;55.21;96287.81;4937169;28;20115;-76
2021/09/11 09:59:25;;;;;;;5.40;4.50;;;28.60;44.90;;;26.34;54.93;96279.66;4915568;28;20239;-76
2021/09/11 10:01:51;;;;;;;7.45;5.72;;;28.60;44.10;;;26.35;54.35;96282.09;4935917;28;20193;-76
2021/09/11 10:04:19;;;;;;;6.50;5.00;;;28.30;44.50;;;26.42;52.64;96284.44;4935260;29;20039;-77
2021/09/11 10:06:52;;;;;;;8.23;4.57;;;28.70;43.80;;;26.92;52.50;96276.88;4934772;28;20035;-76